Am Bremen — H9PI — position and weather

sailwx.info

Track history (hours):
 
Tides and Currents Weather Stations Pressure Air Temp Water Temp Dewpoint Dewpoint Depression Visibility Wind Speed Wind Dir Waves Ship Positions

Am Bremen

Last reported at 2017-Sep-27 20:06 UTC. Time now 2017-Oct-19 16:14 UTC.
Position N 46°13' W 126°05'.
Warning: this ship's position is 21 days out of date.

Length 190 m; draft 12.2 m.

Type: Cargo ship. MMSI: 373724000.

Date/timePositionNaut miles runAvg speedWind from/ knotsBaromVisibWave heightAir tempDewpointWater temp
2017-Sep-27 20:06N 46°13' W 126°05'111.2
2017-Sep-27 20:00N 46°13' W 126°03'611.4
2017-Sep-27 19:30N 46°13' W 125°55'611.7
2017-Sep-27 19:00N 46°13' W 125°47'612.0
2017-Sep-27 18:30N 46°12' W 125°38'611.9
2017-Sep-27 18:00N 46°12' W 125°29'611.8
2017-Sep-27 17:30N 46°12' W 125°21'611.5
2017-Sep-27 17:00N 46°12' W 125°13'611.6
2017-Sep-27 16:30N 46°12' W 125°04'811.6
2017-Sep-27 15:50N 46°12' W 124°53'411.5
2017-Sep-27 15:30N 46°12' W 124°47'611.4
2017-Sep-27 15:00N 46°12' W 124°39'611.2
2017-Sep-27 14:30N 46°12' W 124°31'611.4
2017-Sep-27 14:00N 46°11' W 124°23'510.8
2017-Sep-27 13:30N 46°10' W 124°15'510.0
2017-Sep-27 13:00N 46°13' W 124°09'5 9.7
2017-Sep-27 12:30N 46°15' W 124°03'4 8.9
2017-Sep-27 12:00N 46°13' W 123°58'4 8.4
2017-Sep-27 11:30N 46°12' W 123°52'4 8.4
2017-Sep-27 11:00N 46°13' W 123°46'5 9.4
2017-Sep-27 10:30N 46°15' W 123°40'810.7
2017-Sep-27 09:48N 46°16' W 123°29'3 9.7
2017-Sep-27 09:30N 46°15' W 123°26'510.6
2017-Sep-27 09:00N 46°10' W 123°24'611.3
2017-Sep-27 08:30N 46°09' W 123°16'612.0
2017-Sep-27 08:00N 46°11' W 123°08'611.7
2017-Sep-27 07:30N 46°08' W 123°01'8 9.6
2017-Sep-27 06:42N 46°03' W 122°53'1 4.3
2017-Sep-27 06:26N 46°02' W 122°52'0 0.1
2017-Sep-27 05:56N 46°02' W 122°52'0 0.0
2017-Sep-27 05:29N 46°02' W 122°52'0 0.0
2017-Sep-27 04:53N 46°02' W 122°52'0 0.0
2017-Sep-27 04:29N 46°02' W 122°52'0 0.0
2017-Sep-27 03:59N 46°02' W 122°52'0 0.0
2017-Sep-27 03:29N 46°02' W 122°52'0 0.0
2017-Sep-27 02:59N 46°02' W 122°52'0 0.0
2017-Sep-27 02:26N 46°02' W 122°52'0 0.0
2017-Sep-27 01:53N 46°02' W 122°52'0 0.0
2017-Sep-27 01:26N 46°02' W 122°52'0 0.0
2017-Sep-27 00:47N 46°02' W 122°52'0 0.0
2017-Sep-27 00:23N 46°02' W 122°52'0 0.0
2017-Sep-26 23:59N 46°02' W 122°52'0 0.0
2017-Sep-26 22:47N 46°02' W 122°52'0 0.0
2017-Sep-26 22:20N 46°02' W 122°52'0 0.0
2017-Sep-26 21:56N 46°02' W 122°52'0 0.0
2017-Sep-26 21:29N 46°02' W 122°52'0 0.0
2017-Sep-26 20:56N 46°02' W 122°52'0 0.0
2017-Sep-26 20:20N 46°02' W 122°52'0 0.0
2017-Sep-26 19:41N 46°02' W 122°52'0 0.0
2017-Sep-26 19:26N 46°02' W 122°52'0 0.0
2017-Sep-26 18:56N 46°02' W 122°52'0 0.0
2017-Sep-26 18:29N 46°02' W 122°52'0 0.0
2017-Sep-26 17:53N 46°02' W 122°52'0 0.0
2017-Sep-26 17:27N 46°02' W 122°52'0 0.0
2017-Sep-26 16:54N 46°02' W 122°52'0 0.0
2017-Sep-26 16:30N 46°02' W 122°52'0 0.0
2017-Sep-26 15:51N 46°02' W 122°52'0 0.0
2017-Sep-26 15:18N 46°02' W 122°52'0 0.0
2017-Sep-26 14:57N 46°02' W 122°52'0 0.0
2017-Sep-26 14:24N 46°02' W 122°52'0 0.0
2017-Sep-26 13:45N 46°02' W 122°52'0 0.0
2017-Sep-26 13:30N 46°02' W 122°52'0 0.0
2017-Sep-26 13:00N 46°02' W 122°52'0 0.0
2017-Sep-26 12:24N 46°02' W 122°52'0 0.0
2017-Sep-26 12:00N 46°02' W 122°52'0 0.0
2017-Sep-26 11:30N 46°02' W 122°52'0 0.0
2017-Sep-26 10:57N 46°02' W 122°52'0 0.0
2017-Sep-26 10:27N 46°02' W 122°52'0 0.0
2017-Sep-26 10:00N 46°02' W 122°52'0 0.0
2017-Sep-26 09:30N 46°02' W 122°52'0 0.0
2017-Sep-26 09:00N 46°02' W 122°52'0 0.0
2017-Sep-26 08:30N 46°02' W 122°52'0 0.0
2017-Sep-26 07:57N 46°02' W 122°52'0 0.0
2017-Sep-26 07:30N 46°02' W 122°52'0 0.0
2017-Sep-26 07:00N 46°02' W 122°52'0 0.0
2017-Sep-26 06:18N 46°02' W 122°52'0 0.0
2017-Sep-26 06:00N 46°02' W 122°52'0 0.0
2017-Sep-26 05:27N 46°02' W 122°52'0 0.0
2017-Sep-26 04:57N 46°02' W 122°52'0 0.0
2017-Sep-26 04:06N 46°02' W 122°52'0 0.0
2017-Sep-26 04:00N 46°02' W 122°52'0 0.0
2017-Sep-26 03:30N 46°02' W 122°52'0 0.0
2017-Sep-26 03:00N 46°02' W 122°52'0 0.0
2017-Sep-26 01:48N 46°02' W 122°52'0 0.0
2017-Sep-26 01:27N 46°02' W 122°52'0 0.0
2017-Sep-26 00:45N 46°02' W 122°52'0 0.0
2017-Sep-26 00:30N 46°02' W 122°52'0 0.0
2017-Sep-26 00:00N 46°02' W 122°52'0 0.0
2017-Sep-25 22:54N 46°02' W 122°52'0 0.0
2017-Sep-25 22:27N 46°02' W 122°52'0 0.0
2017-Sep-25 22:00N 46°02' W 122°52'0 0.0
2017-Sep-25 21:30N 46°02' W 122°52'0 0.0
2017-Sep-25 21:00N 46°02' W 122°52'0 0.0
2017-Sep-25 20:28N 46°02' W 122°52'0 0.0
2017-Sep-25 20:00N 46°02' W 122°52'0 0.0
2017-Sep-25 19:30N 46°02' W 122°52'0 0.0
2017-Sep-25 19:00N 46°02' W 122°52'0 0.0
2017-Sep-25 18:30N 46°02' W 122°52'0 0.0
2017-Sep-25 17:54N 46°02' W 122°52'0 0.0
2017-Sep-25 17:30N 46°02' W 122°52'0 0.0
2017-Sep-25 17:00N 46°02' W 122°52'0 0.0
2017-Sep-25 16:30N 46°02' W 122°52'0 0.0
2017-Sep-25 16:00N 46°02' W 122°52'0 0.0
2017-Sep-25 15:30N 46°02' W 122°52'0 0.0
2017-Sep-25 14:57N 46°02' W 122°52'0 0.0
2017-Sep-25 14:27N 46°02' W 122°52'0 0.0
2017-Sep-25 13:48N 46°02' W 122°52'0 0.0
2017-Sep-25 13:30N 46°02' W 122°52'0 0.0
2017-Sep-25 13:00N 46°02' W 122°52'0 0.0
2017-Sep-25 12:24N 46°02' W 122°52'0 0.0
2017-Sep-25 12:00N 46°02' W 122°52'0 0.0
2017-Sep-25 11:30N 46°02' W 122°52'0 0.0
2017-Sep-25 11:00N 46°02' W 122°52'0 0.0
2017-Sep-25 10:30N 46°02' W 122°52'0 0.0
2017-Sep-25 10:00N 46°02' W 122°52'0 0.0
2017-Sep-25 09:30N 46°02' W 122°52'0 0.0
2017-Sep-25 09:00N 46°02' W 122°52'0 0.0
2017-Sep-25 08:12N 46°02' W 122°52'0 0.0
2017-Sep-25 08:00N 46°02' W 122°52'0 0.0
2017-Sep-25 07:24N 46°02' W 122°52'0 0.0
2017-Sep-25 07:00N 46°02' W 122°52'0 0.0
2017-Sep-25 06:27N 46°02' W 122°52'0 0.0
2017-Sep-25 06:00N 46°02' W 122°52'0 0.0
2017-Sep-25 05:30N 46°02' W 122°52'0 0.0
2017-Sep-25 05:00N 46°02' W 122°52'0 0.0
2017-Sep-25 03:39N 46°02' W 122°52'0 0.0
2017-Sep-25 03:30N 46°02' W 122°52'0 0.0
2017-Sep-25 02:13N 46°02' W 122°52'0 0.0
2017-Sep-25 01:53N 46°02' W 122°52'0 0.8
2017-Sep-25 01:28N 46°02' W 122°53'1 2.0
2017-Sep-25 01:00N 46°03' W 122°53'0 0.1
2017-Sep-25 00:30N 46°03' W 122°53'0 0.0
2017-Sep-24 23:54N 46°03' W 122°53'0 0.0
2017-Sep-24 23:30N 46°03' W 122°53'0 0.0
2017-Sep-24 22:57N 46°03' W 122°53'0 0.0
2017-Sep-24 22:30N 46°03' W 122°53'0 0.0
2017-Sep-24 21:57N 46°03' W 122°53'0 0.0
2017-Sep-24 21:21N 46°03' W 122°53'0 0.0
2017-Sep-24 21:00N 46°03' W 122°53'0 0.0
2017-Sep-24 20:30N 46°03' W 122°53'0 0.0
2017-Sep-24 20:00N 46°03' W 122°53'0 0.0
2017-Sep-24 19:21N 46°03' W 122°53'0 0.0
2017-Sep-24 18:57N 46°03' W 122°53'0 0.0
2017-Sep-24 18:30N 46°03' W 122°53'0 0.0
2017-Sep-24 17:51N 46°03' W 122°53'0 0.0
2017-Sep-24 17:30N 46°03' W 122°53'0 0.0
2017-Sep-24 17:00N 46°03' W 122°53'0 0.0
2017-Sep-24 16:24N 46°03' W 122°53'0 0.0
2017-Sep-24 16:00N 46°03' W 122°53'0 0.0
2017-Sep-24 15:30N 46°03' W 122°53'0 0.0
2017-Sep-24 14:57N 46°03' W 122°53'0 0.0
2017-Sep-24 14:30N 46°03' W 122°53'0 0.0
2017-Sep-24 13:57N 46°03' W 122°53'0 0.0
2017-Sep-24 13:27N 46°03' W 122°53'0 0.0
2017-Sep-24 13:00N 46°03' W 122°53'0 0.0
2017-Sep-24 12:18N 46°03' W 122°53'0 0.0
2017-Sep-24 11:36N 46°03' W 122°53'0 0.0
2017-Sep-24 11:30N 46°03' W 122°53'0 0.0
2017-Sep-24 11:00N 46°03' W 122°53'0 0.0
2017-Sep-24 10:30N 46°03' W 122°53'0 0.0
2017-Sep-24 10:00N 46°03' W 122°53'0 0.0
2017-Sep-24 09:30N 46°03' W 122°53'0 0.0
2017-Sep-24 08:57N 46°03' W 122°53'0 0.0
2017-Sep-24 08:30N 46°03' W 122°53'0 0.0
2017-Sep-24 08:00N 46°03' W 122°53'0 0.0
2017-Sep-24 07:27N 46°03' W 122°53'0 0.0
2017-Sep-24 07:00N 46°03' W 122°53'0 0.0
2017-Sep-24 06:27N 46°03' W 122°53'0 0.0
2017-Sep-24 06:00N 46°03' W 122°53'0 0.0
2017-Sep-24 05:30N 46°03' W 122°53'0 0.0
2017-Sep-24 05:00N 46°03' W 122°53'0 0.0
2017-Sep-24 04:30N 46°03' W 122°53'0 0.0
2017-Sep-24 03:57N 46°03' W 122°53'0 0.0
2017-Sep-24 03:27N 46°03' W 122°53'0 0.0
2017-Sep-24 02:57N 46°03' W 122°53'0 0.0
2017-Sep-24 02:30N 46°03' W 122°53'0 0.0
2017-Sep-24 02:00N 46°03' W 122°53'0 0.0
2017-Sep-24 01:30N 46°03' W 122°53'0 0.0
2017-Sep-24 01:00N 46°03' W 122°53'0 0.0
2017-Sep-24 00:30N 46°03' W 122°53'0 0.0
2017-Sep-23 23:30N 46°03' W 122°53'0 0.0
2017-Sep-23 22:57N 46°03' W 122°53'0 0.0
2017-Sep-23 22:30N 46°03' W 122°53'0 0.0
2017-Sep-23 22:00N 46°03' W 122°53'0 0.0
2017-Sep-23 21:27N 46°03' W 122°53'0 0.0
2017-Sep-23 20:27N 46°03' W 122°53'0 0.0
2017-Sep-23 19:45N 46°03' W 122°53'25 0.6
2017-Sep-22 01:55N 45°39' W 122°46'0 0.0
2017-Sep-22 01:28N 45°39' W 122°46'0 0.0
2017-Sep-22 00:40N 45°39' W 122°46'0 0.0
2017-Sep-22 00:28N 45°39' W 122°46'0 0.0
2017-Sep-21 23:58N 45°39' W 122°46'0 0.0
2017-Sep-21 23:28N 45°39' W 122°46'0 0.0
2017-Sep-21 22:58N 45°39' W 122°46'0 0.0
2017-Sep-21 22:25N 45°39' W 122°46'0 0.0
2017-Sep-21 21:58N 45°39' W 122°46'1 1.9
2017-Sep-21 21:30N 45°39' W 122°46'2 4.2
2017-Sep-21 20:59N 45°38' W 122°43'0 0.0
2017-Sep-21 20:29N 45°38' W 122°43'0 0.0
2017-Sep-21 19:59N 45°38' W 122°43'0 0.0
2017-Sep-21 19:26N 45°38' W 122°43'0 0.0
2017-Sep-21 17:59N 45°38' W 122°43'0 0.0
2017-Sep-21 17:29N 45°38' W 122°43'0 0.0
2017-Sep-21 16:59N 45°38' W 122°43'0 0.0
2017-Sep-21 16:29N 45°38' W 122°43'0 0.0
2017-Sep-21 15:59N 45°38' W 122°43'0 0.0
2017-Sep-21 15:29N 45°38' W 122°43'0 0.0
2017-Sep-21 14:56N 45°38' W 122°43'0 0.0
2017-Sep-21 14:23N 45°38' W 122°43'0 0.0
2017-Sep-21 13:56N 45°38' W 122°43'0 0.0
2017-Sep-21 13:26N 45°38' W 122°43'0 0.0
2017-Sep-21 12:59N 45°38' W 122°43'0 0.0
2017-Sep-21 12:29N 45°38' W 122°43'0 0.0
2017-Sep-21 11:53N 45°38' W 122°43'0 0.1
2017-Sep-21 11:29N 45°38' W 122°43'0 0.0
2017-Sep-21 10:44N 45°38' W 122°43'0 0.0
2017-Sep-21 10:23N 45°38' W 122°43'0 1.0
2017-Sep-21 10:01N 45°38' W 122°43'4 7.9
2017-Sep-21 09:31N 45°42' W 122°46'611.3
2017-Sep-21 09:01N 45°47' W 122°47'510.6
2017-Sep-21 08:30N 45°53' W 122°48'611.0
2017-Sep-21 08:00N 45°58' W 122°50'510.5
2017-Sep-21 07:31N 46°03' W 122°53'5 9.6
2017-Sep-21 07:00N 46°06' W 122°58'510.3
2017-Sep-21 06:31N 46°09' W 123°03'510.3
2017-Sep-21 06:00N 46°11' W 123°10'510.8
2017-Sep-21 05:30N 46°09' W 123°17'5 9.7
2017-Sep-21 05:01N 46°10' W 123°24'5 9.7
2017-Sep-21 04:30N 46°15' W 123°26'5 9.4
2017-Sep-21 04:00N 46°16' W 123°33'510.7
2017-Sep-21 03:31N 46°15' W 123°40'510.3
2017-Sep-21 03:00N 46°13' W 123°47'1 0.4
2017-Sep-21 01:39N 46°12' W 123°47'0 0.0
2017-Sep-21 01:30N 46°12' W 123°47'0 0.0
2017-Sep-21 01:00N 46°12' W 123°47'0 0.0
2017-Sep-21 00:30N 46°12' W 123°47'0 0.0
2017-Sep-20 23:59N 46°12' W 123°47'0 0.0
2017-Sep-20 23:30N 46°12' W 123°47'0 0.2
2017-Sep-20 22:57N 46°12' W 123°47'0 0.3
2017-Sep-20 22:30N 46°12' W 123°47'0 0.1
2017-Sep-20 21:57N 46°12' W 123°47'0 0.1
2017-Sep-20 21:29N 46°12' W 123°47'0 0.0
2017-Sep-20 20:59N 46°12' W 123°47'0 0.0
2017-Sep-20 20:24N 46°12' W 123°47'0 0.0
2017-Sep-20 20:00N 46°12' W 123°47'0 0.0
2017-Sep-20 19:30N 46°12' W 123°47'0 0.0
2017-Sep-20 19:00N 46°12' W 123°47'0 0.1
2017-Sep-20 18:29N 46°12' W 123°47'0 0.0
2017-Sep-20 18:00N 46°12' W 123°47'0 0.3
2017-Sep-20 17:26N 46°12' W 123°47'0 0.2
2017-Sep-20 17:00N 46°12' W 123°47'0 0.1
2017-Sep-20 16:30N 46°12' W 123°47'0 0.0
2017-Sep-20 15:59N 46°12' W 123°47'0 0.1
2017-Sep-20 15:29N 46°12' W 123°47'0 0.0
2017-Sep-20 14:59N 46°12' W 123°47'0 0.0
2017-Sep-20 14:00N 46°12' W 123°47'0 0.0
2017-Sep-20 13:29N 46°12' W 123°47'0 0.0
2017-Sep-20 12:59N 46°12' W 123°47'0 0.0
2017-Sep-20 12:29N 46°12' W 123°47'0 0.0
2017-Sep-20 11:54N 46°12' W 123°47'0 0.0
2017-Sep-20 11:30N 46°12' W 123°47'0 0.0
2017-Sep-20 11:00N 46°12' W 123°47'0 0.0
2017-Sep-20 10:30N 46°12' W 123°47'0 0.2
2017-Sep-20 09:59N 46°12' W 123°47'0 0.4
2017-Sep-20 09:30N 46°12' W 123°47'0 0.0
2017-Sep-20 08:59N 46°12' W 123°47'0 0.1
2017-Sep-20 08:29N 46°12' W 123°47'0 0.1
2017-Sep-20 08:00N 46°12' W 123°47'0 0.1
2017-Sep-20 07:30N 46°12' W 123°47'0 0.1
2017-Sep-20 07:00N 46°12' W 123°47'0 0.1
2017-Sep-20 06:30N 46°12' W 123°47'0 0.0
2017-Sep-20 05:59N 46°12' W 123°47'0 0.0
2017-Sep-20 05:30N 46°12' W 123°47'0 0.0
2017-Sep-20 04:59N 46°12' W 123°47'0 0.3
2017-Sep-20 04:30N 46°12' W 123°47'0 0.1
2017-Sep-20 03:59N 46°12' W 123°47'0 0.1
2017-Sep-20 03:30N 46°12' W 123°47'0 0.0
2017-Sep-20 02:59N 46°12' W 123°47'0 0.0
2017-Sep-20 02:26N 46°12' W 123°47'0 0.0
2017-Sep-20 01:59N 46°12' W 123°47'0 0.0
2017-Sep-20 01:26N 46°12' W 123°47'0 0.1
2017-Sep-20 00:59N 46°12' W 123°47'0 0.1
2017-Sep-20 00:29N 46°12' W 123°47'0 0.1
2017-Sep-19 23:59N 46°12' W 123°47'0 0.0
2017-Sep-19 23:26N 46°12' W 123°47'0 0.0
2017-Sep-19 22:59N 46°12' W 123°47'0 0.3
2017-Sep-19 22:26N 46°12' W 123°47'0 0.1
2017-Sep-19 21:59N 46°12' W 123°47'0 0.1
2017-Sep-19 21:29N 46°12' W 123°47'0 0.1
2017-Sep-19 20:59N 46°12' W 123°47'0 0.0
2017-Sep-19 20:26N 46°12' W 123°47'0 0.0
2017-Sep-19 19:50N 46°12' W 123°47'0 0.0
2017-Sep-19 19:29N 46°12' W 123°47'0 0.0
2017-Sep-19 18:59N 46°12' W 123°47'0 0.1
2017-Sep-19 18:29N 46°12' W 123°47'0 0.0
2017-Sep-19 17:59N 46°12' W 123°47'0 0.0
2017-Sep-19 17:29N 46°12' W 123°47'0 0.0
2017-Sep-19 16:59N 46°12' W 123°47'0 0.1
2017-Sep-19 16:29N 46°12' W 123°47'0 0.3
2017-Sep-19 15:59N 46°12' W 123°47'0 0.3
2017-Sep-19 15:29N 46°12' W 123°47'0 0.0
2017-Sep-19 14:59N 46°12' W 123°47'0 0.0
2017-Sep-19 14:29N 46°12' W 123°47'0 0.1
2017-Sep-19 13:59N 46°12' W 123°47'0 0.0
2017-Sep-19 13:26N 46°12' W 123°47'  
Track history (hours):
 
Tides and Currents Weather Stations Pressure Air Temp Water Temp Dewpoint Dewpoint Depression Visibility Wind Speed Wind Dir Waves Ship Positions

Am Bremen

Last reported at 2017-Sep-27 20:06 UTC. Time now 2017-Oct-19 16:14 UTC.
Position N 46°13' W 126°05'.
Warning: this ship's position is 21 days out of date.

Length 190 m; draft 12.2 m.

Type: Cargo ship. MMSI: 373724000.

Date/timePositionNaut miles runAvg speedWind from/ knotsBaromVisibWave heightAir tempDewpointWater temp
2017-Sep-27 20:06N 46°13' W 126°05'111.2
2017-Sep-27 20:00N 46°13' W 126°03'611.4
2017-Sep-27 19:30N 46°13' W 125°55'611.7
2017-Sep-27 19:00N 46°13' W 125°47'612.0
2017-Sep-27 18:30N 46°12' W 125°38'611.9
2017-Sep-27 18:00N 46°12' W 125°29'611.8
2017-Sep-27 17:30N 46°12' W 125°21'611.5
2017-Sep-27 17:00N 46°12' W 125°13'611.6
2017-Sep-27 16:30N 46°12' W 125°04'811.6
2017-Sep-27 15:50N 46°12' W 124°53'411.5
2017-Sep-27 15:30N 46°12' W 124°47'611.4
2017-Sep-27 15:00N 46°12' W 124°39'611.2
2017-Sep-27 14:30N 46°12' W 124°31'611.4
2017-Sep-27 14:00N 46°11' W 124°23'510.8
2017-Sep-27 13:30N 46°10' W 124°15'510.0
2017-Sep-27 13:00N 46°13' W 124°09'5 9.7
2017-Sep-27 12:30N 46°15' W 124°03'4 8.9
2017-Sep-27 12:00N 46°13' W 123°58'4 8.4
2017-Sep-27 11:30N 46°12' W 123°52'4 8.4
2017-Sep-27 11:00N 46°13' W 123°46'5 9.4
2017-Sep-27 10:30N 46°15' W 123°40'810.7
2017-Sep-27 09:48N 46°16' W 123°29'3 9.7
2017-Sep-27 09:30N 46°15' W 123°26'510.6
2017-Sep-27 09:00N 46°10' W 123°24'611.3
2017-Sep-27 08:30N 46°09' W 123°16'612.0
2017-Sep-27 08:00N 46°11' W 123°08'611.7
2017-Sep-27 07:30N 46°08' W 123°01'8 9.6
2017-Sep-27 06:42N 46°03' W 122°53'1 4.3
2017-Sep-27 06:26N 46°02' W 122°52'0 0.1
2017-Sep-27 05:56N 46°02' W 122°52'0 0.0
2017-Sep-27 05:29N 46°02' W 122°52'0 0.0
2017-Sep-27 04:53N 46°02' W 122°52'0 0.0
2017-Sep-27 04:29N 46°02' W 122°52'0 0.0
2017-Sep-27 03:59N 46°02' W 122°52'0 0.0
2017-Sep-27 03:29N 46°02' W 122°52'0 0.0
2017-Sep-27 02:59N 46°02' W 122°52'0 0.0
2017-Sep-27 02:26N 46°02' W 122°52'0 0.0
2017-Sep-27 01:53N 46°02' W 122°52'0 0.0
2017-Sep-27 01:26N 46°02' W 122°52'0 0.0
2017-Sep-27 00:47N 46°02' W 122°52'0 0.0
2017-Sep-27 00:23N 46°02' W 122°52'0 0.0
2017-Sep-26 23:59N 46°02' W 122°52'0 0.0
2017-Sep-26 22:47N 46°02' W 122°52'0 0.0
2017-Sep-26 22:20N 46°02' W 122°52'0 0.0
2017-Sep-26 21:56N 46°02' W 122°52'0 0.0
2017-Sep-26 21:29N 46°02' W 122°52'0 0.0
2017-Sep-26 20:56N 46°02' W 122°52'0 0.0
2017-Sep-26 20:20N 46°02' W 122°52'0 0.0
2017-Sep-26 19:41N 46°02' W 122°52'0 0.0
2017-Sep-26 19:26N 46°02' W 122°52'0 0.0
2017-Sep-26 18:56N 46°02' W 122°52'0 0.0
2017-Sep-26 18:29N 46°02' W 122°52'0 0.0
2017-Sep-26 17:53N 46°02' W 122°52'0 0.0
2017-Sep-26 17:27N 46°02' W 122°52'0 0.0
2017-Sep-26 16:54N 46°02' W 122°52'0 0.0
2017-Sep-26 16:30N 46°02' W 122°52'0 0.0
2017-Sep-26 15:51N 46°02' W 122°52'0 0.0
2017-Sep-26 15:18N 46°02' W 122°52'0 0.0
2017-Sep-26 14:57N 46°02' W 122°52'0 0.0
2017-Sep-26 14:24N 46°02' W 122°52'0 0.0
2017-Sep-26 13:45N 46°02' W 122°52'0 0.0
2017-Sep-26 13:30N 46°02' W 122°52'0 0.0
2017-Sep-26 13:00N 46°02' W 122°52'0 0.0
2017-Sep-26 12:24N 46°02' W 122°52'0 0.0
2017-Sep-26 12:00N 46°02' W 122°52'0 0.0
2017-Sep-26 11:30N 46°02' W 122°52'0 0.0
2017-Sep-26 10:57N 46°02' W 122°52'0 0.0
2017-Sep-26 10:27N 46°02' W 122°52'0 0.0
2017-Sep-26 10:00N 46°02' W 122°52'0 0.0
2017-Sep-26 09:30N 46°02' W 122°52'0 0.0
2017-Sep-26 09:00N 46°02' W 122°52'0 0.0
2017-Sep-26 08:30N 46°02' W 122°52'0 0.0
2017-Sep-26 07:57N 46°02' W 122°52'0 0.0
2017-Sep-26 07:30N 46°02' W 122°52'0 0.0
2017-Sep-26 07:00N 46°02' W 122°52'0 0.0
2017-Sep-26 06:18N 46°02' W 122°52'0 0.0
2017-Sep-26 06:00N 46°02' W 122°52'0 0.0
2017-Sep-26 05:27N 46°02' W 122°52'0 0.0
2017-Sep-26 04:57N 46°02' W 122°52'0 0.0
2017-Sep-26 04:06N 46°02' W 122°52'0 0.0
2017-Sep-26 04:00N 46°02' W 122°52'0 0.0
2017-Sep-26 03:30N 46°02' W 122°52'0 0.0
2017-Sep-26 03:00N 46°02' W 122°52'0 0.0
2017-Sep-26 01:48N 46°02' W 122°52'0 0.0
2017-Sep-26 01:27N 46°02' W 122°52'0 0.0
2017-Sep-26 00:45N 46°02' W 122°52'0 0.0
2017-Sep-26 00:30N 46°02' W 122°52'0 0.0
2017-Sep-26 00:00N 46°02' W 122°52'0 0.0
2017-Sep-25 22:54N 46°02' W 122°52'0 0.0
2017-Sep-25 22:27N 46°02' W 122°52'0 0.0
2017-Sep-25 22:00N 46°02' W 122°52'0 0.0
2017-Sep-25 21:30N 46°02' W 122°52'0 0.0
2017-Sep-25 21:00N 46°02' W 122°52'0 0.0
2017-Sep-25 20:28N 46°02' W 122°52'0 0.0
2017-Sep-25 20:00N 46°02' W 122°52'0 0.0
2017-Sep-25 19:30N 46°02' W 122°52'0 0.0
2017-Sep-25 19:00N 46°02' W 122°52'0 0.0
2017-Sep-25 18:30N 46°02' W 122°52'0 0.0
2017-Sep-25 17:54N 46°02' W 122°52'0 0.0
2017-Sep-25 17:30N 46°02' W 122°52'0 0.0
2017-Sep-25 17:00N 46°02' W 122°52'0 0.0
2017-Sep-25 16:30N 46°02' W 122°52'0 0.0
2017-Sep-25 16:00N 46°02' W 122°52'0 0.0
2017-Sep-25 15:30N 46°02' W 122°52'0 0.0
2017-Sep-25 14:57N 46°02' W 122°52'0 0.0
2017-Sep-25 14:27N 46°02' W 122°52'0 0.0
2017-Sep-25 13:48N 46°02' W 122°52'0 0.0
2017-Sep-25 13:30N 46°02' W 122°52'0 0.0
2017-Sep-25 13:00N 46°02' W 122°52'0 0.0
2017-Sep-25 12:24N 46°02' W 122°52'0 0.0
2017-Sep-25 12:00N 46°02' W 122°52'0 0.0
2017-Sep-25 11:30N 46°02' W 122°52'0 0.0
2017-Sep-25 11:00N 46°02' W 122°52'0 0.0
2017-Sep-25 10:30N 46°02' W 122°52'0 0.0
2017-Sep-25 10:00N 46°02' W 122°52'0 0.0
2017-Sep-25 09:30N 46°02' W 122°52'0 0.0
2017-Sep-25 09:00N 46°02' W 122°52'0 0.0
2017-Sep-25 08:12N 46°02' W 122°52'0 0.0
2017-Sep-25 08:00N 46°02' W 122°52'0 0.0
2017-Sep-25 07:24N 46°02' W 122°52'0 0.0
2017-Sep-25 07:00N 46°02' W 122°52'0 0.0
2017-Sep-25 06:27N 46°02' W 122°52'0 0.0
2017-Sep-25 06:00N 46°02' W 122°52'0 0.0
2017-Sep-25 05:30N 46°02' W 122°52'0 0.0
2017-Sep-25 05:00N 46°02' W 122°52'0 0.0
2017-Sep-25 03:39N 46°02' W 122°52'0 0.0
2017-Sep-25 03:30N 46°02' W 122°52'0 0.0
2017-Sep-25 02:13N 46°02' W 122°52'0 0.0
2017-Sep-25 01:53N 46°02' W 122°52'0 0.8
2017-Sep-25 01:28N 46°02' W 122°53'1 2.0
2017-Sep-25 01:00N 46°03' W 122°53'0 0.1
2017-Sep-25 00:30N 46°03' W 122°53'0 0.0
2017-Sep-24 23:54N 46°03' W 122°53'0 0.0
2017-Sep-24 23:30N 46°03' W 122°53'0 0.0
2017-Sep-24 22:57N 46°03' W 122°53'0 0.0
2017-Sep-24 22:30N 46°03' W 122°53'0 0.0
2017-Sep-24 21:57N 46°03' W 122°53'0 0.0
2017-Sep-24 21:21N 46°03' W 122°53'0 0.0
2017-Sep-24 21:00N 46°03' W 122°53'0 0.0
2017-Sep-24 20:30N 46°03' W 122°53'0 0.0
2017-Sep-24 20:00N 46°03' W 122°53'0 0.0
2017-Sep-24 19:21N 46°03' W 122°53'0 0.0
2017-Sep-24 18:57N 46°03' W 122°53'0 0.0
2017-Sep-24 18:30N 46°03' W 122°53'0 0.0
2017-Sep-24 17:51N 46°03' W 122°53'0 0.0
2017-Sep-24 17:30N 46°03' W 122°53'0 0.0
2017-Sep-24 17:00N 46°03' W 122°53'0 0.0
2017-Sep-24 16:24N 46°03' W 122°53'0 0.0
2017-Sep-24 16:00N 46°03' W 122°53'0 0.0
2017-Sep-24 15:30N 46°03' W 122°53'0 0.0
2017-Sep-24 14:57N 46°03' W 122°53'0 0.0
2017-Sep-24 14:30N 46°03' W 122°53'0 0.0
2017-Sep-24 13:57N 46°03' W 122°53'0 0.0
2017-Sep-24 13:27N 46°03' W 122°53'0 0.0
2017-Sep-24 13:00N 46°03' W 122°53'0 0.0
2017-Sep-24 12:18N 46°03' W 122°53'0 0.0
2017-Sep-24 11:36N 46°03' W 122°53'0 0.0
2017-Sep-24 11:30N 46°03' W 122°53'0 0.0
2017-Sep-24 11:00N 46°03' W 122°53'0 0.0
2017-Sep-24 10:30N 46°03' W 122°53'0 0.0
2017-Sep-24 10:00N 46°03' W 122°53'0 0.0
2017-Sep-24 09:30N 46°03' W 122°53'0 0.0
2017-Sep-24 08:57N 46°03' W 122°53'0 0.0
2017-Sep-24 08:30N 46°03' W 122°53'0 0.0
2017-Sep-24 08:00N 46°03' W 122°53'0 0.0
2017-Sep-24 07:27N 46°03' W 122°53'0 0.0
2017-Sep-24 07:00N 46°03' W 122°53'0 0.0
2017-Sep-24 06:27N 46°03' W 122°53'0 0.0
2017-Sep-24 06:00N 46°03' W 122°53'0 0.0
2017-Sep-24 05:30N 46°03' W 122°53'0 0.0
2017-Sep-24 05:00N 46°03' W 122°53'0 0.0
2017-Sep-24 04:30N 46°03' W 122°53'0 0.0
2017-Sep-24 03:57N 46°03' W 122°53'0 0.0
2017-Sep-24 03:27N 46°03' W 122°53'0 0.0
2017-Sep-24 02:57N 46°03' W 122°53'0 0.0
2017-Sep-24 02:30N 46°03' W 122°53'0 0.0
2017-Sep-24 02:00N 46°03' W 122°53'0 0.0
2017-Sep-24 01:30N 46°03' W 122°53'0 0.0
2017-Sep-24 01:00N 46°03' W 122°53'0 0.0
2017-Sep-24 00:30N 46°03' W 122°53'0 0.0
2017-Sep-23 23:30N 46°03' W 122°53'0 0.0
2017-Sep-23 22:57N 46°03' W 122°53'0 0.0
2017-Sep-23 22:30N 46°03' W 122°53'0 0.0
2017-Sep-23 22:00N 46°03' W 122°53'0 0.0
2017-Sep-23 21:27N 46°03' W 122°53'0 0.0
2017-Sep-23 20:27N 46°03' W 122°53'0 0.0
2017-Sep-23 19:45N 46°03' W 122°53'25 0.6
2017-Sep-22 01:55N 45°39' W 122°46'0 0.0
2017-Sep-22 01:28N 45°39' W 122°46'0 0.0
2017-Sep-22 00:40N 45°39' W 122°46'0 0.0
2017-Sep-22 00:28N 45°39' W 122°46'0 0.0
2017-Sep-21 23:58N 45°39' W 122°46'0 0.0
2017-Sep-21 23:28N 45°39' W 122°46'0 0.0
2017-Sep-21 22:58N 45°39' W 122°46'0 0.0
2017-Sep-21 22:25N 45°39' W 122°46'0 0.0
2017-Sep-21 21:58N 45°39' W 122°46'1 1.9
2017-Sep-21 21:30N 45°39' W 122°46'2 4.2
2017-Sep-21 20:59N 45°38' W 122°43'0 0.0
2017-Sep-21 20:29N 45°38' W 122°43'0 0.0
2017-Sep-21 19:59N 45°38' W 122°43'0 0.0
2017-Sep-21 19:26N 45°38' W 122°43'0 0.0
2017-Sep-21 17:59N 45°38' W 122°43'0 0.0
2017-Sep-21 17:29N 45°38' W 122°43'0 0.0
2017-Sep-21 16:59N 45°38' W 122°43'0 0.0
2017-Sep-21 16:29N 45°38' W 122°43'0 0.0
2017-Sep-21 15:59N 45°38' W 122°43'0 0.0
2017-Sep-21 15:29N 45°38' W 122°43'0 0.0
2017-Sep-21 14:56N 45°38' W 122°43'0 0.0
2017-Sep-21 14:23N 45°38' W 122°43'0 0.0
2017-Sep-21 13:56N 45°38' W 122°43'0 0.0
2017-Sep-21 13:26N 45°38' W 122°43'0 0.0
2017-Sep-21 12:59N 45°38' W 122°43'0 0.0
2017-Sep-21 12:29N 45°38' W 122°43'0 0.0
2017-Sep-21 11:53N 45°38' W 122°43'0 0.1
2017-Sep-21 11:29N 45°38' W 122°43'0 0.0
2017-Sep-21 10:44N 45°38' W 122°43'0 0.0
2017-Sep-21 10:23N 45°38' W 122°43'0 1.0
2017-Sep-21 10:01N 45°38' W 122°43'4 7.9
2017-Sep-21 09:31N 45°42' W 122°46'611.3
2017-Sep-21 09:01N 45°47' W 122°47'510.6
2017-Sep-21 08:30N 45°53' W 122°48'611.0
2017-Sep-21 08:00N 45°58' W 122°50'510.5
2017-Sep-21 07:31N 46°03' W 122°53'5 9.6
2017-Sep-21 07:00N 46°06' W 122°58'510.3
2017-Sep-21 06:31N 46°09' W 123°03'510.3
2017-Sep-21 06:00N 46°11' W 123°10'510.8
2017-Sep-21 05:30N 46°09' W 123°17'5 9.7
2017-Sep-21 05:01N 46°10' W 123°24'5 9.7
2017-Sep-21 04:30N 46°15' W 123°26'5 9.4
2017-Sep-21 04:00N 46°16' W 123°33'510.7
2017-Sep-21 03:31N 46°15' W 123°40'510.3
2017-Sep-21 03:00N 46°13' W 123°47'1 0.4
2017-Sep-21 01:39N 46°12' W 123°47'0 0.0
2017-Sep-21 01:30N 46°12' W 123°47'0 0.0
2017-Sep-21 01:00N 46°12' W 123°47'0 0.0
2017-Sep-21 00:30N 46°12' W 123°47'0 0.0
2017-Sep-20 23:59N 46°12' W 123°47'0 0.0
2017-Sep-20 23:30N 46°12' W 123°47'0 0.2
2017-Sep-20 22:57N 46°12' W 123°47'0 0.3
2017-Sep-20 22:30N 46°12' W 123°47'0 0.1
2017-Sep-20 21:57N 46°12' W 123°47'0 0.1
2017-Sep-20 21:29N 46°12' W 123°47'0 0.0
2017-Sep-20 20:59N 46°12' W 123°47'0 0.0
2017-Sep-20 20:24N 46°12' W 123°47'0 0.0
2017-Sep-20 20:00N 46°12' W 123°47'0 0.0
2017-Sep-20 19:30N 46°12' W 123°47'0 0.0
2017-Sep-20 19:00N 46°12' W 123°47'0 0.1
2017-Sep-20 18:29N 46°12' W 123°47'0 0.0
2017-Sep-20 18:00N 46°12' W 123°47'0 0.3
2017-Sep-20 17:26N 46°12' W 123°47'0 0.2
2017-Sep-20 17:00N 46°12' W 123°47'0 0.1
2017-Sep-20 16:30N 46°12' W 123°47'0 0.0
2017-Sep-20 15:59N 46°12' W 123°47'0 0.1
2017-Sep-20 15:29N 46°12' W 123°47'0 0.0
2017-Sep-20 14:59N 46°12' W 123°47'0 0.0
2017-Sep-20 14:00N 46°12' W 123°47'0 0.0
2017-Sep-20 13:29N 46°12' W 123°47'0 0.0
2017-Sep-20 12:59N 46°12' W 123°47'0 0.0
2017-Sep-20 12:29N 46°12' W 123°47'0 0.0
2017-Sep-20 11:54N 46°12' W 123°47'0 0.0
2017-Sep-20 11:30N 46°12' W 123°47'0 0.0
2017-Sep-20 11:00N 46°12' W 123°47'0 0.0
2017-Sep-20 10:30N 46°12' W 123°47'0 0.2
2017-Sep-20 09:59N 46°12' W 123°47'0 0.4
2017-Sep-20 09:30N 46°12' W 123°47'0 0.0
2017-Sep-20 08:59N 46°12' W 123°47'0 0.1
2017-Sep-20 08:29N 46°12' W 123°47'0 0.1
2017-Sep-20 08:00N 46°12' W 123°47'0 0.1
2017-Sep-20 07:30N 46°12' W 123°47'0 0.1
2017-Sep-20 07:00N 46°12' W 123°47'0 0.1
2017-Sep-20 06:30N 46°12' W 123°47'0 0.0
2017-Sep-20 05:59N 46°12' W 123°47'0 0.0
2017-Sep-20 05:30N 46°12' W 123°47'0 0.0
2017-Sep-20 04:59N 46°12' W 123°47'0 0.3
2017-Sep-20 04:30N 46°12' W 123°47'0 0.1
2017-Sep-20 03:59N 46°12' W 123°47'0 0.1
2017-Sep-20 03:30N 46°12' W 123°47'0 0.0
2017-Sep-20 02:59N 46°12' W 123°47'0 0.0
2017-Sep-20 02:26N 46°12' W 123°47'0 0.0
2017-Sep-20 01:59N 46°12' W 123°47'0 0.0
2017-Sep-20 01:26N 46°12' W 123°47'0 0.1
2017-Sep-20 00:59N 46°12' W 123°47'0 0.1
2017-Sep-20 00:29N 46°12' W 123°47'0 0.1
2017-Sep-19 23:59N 46°12' W 123°47'0 0.0
2017-Sep-19 23:26N 46°12' W 123°47'0 0.0
2017-Sep-19 22:59N 46°12' W 123°47'0 0.3
2017-Sep-19 22:26N 46°12' W 123°47'0 0.1
2017-Sep-19 21:59N 46°12' W 123°47'0 0.1
2017-Sep-19 21:29N 46°12' W 123°47'0 0.1
2017-Sep-19 20:59N 46°12' W 123°47'0 0.0
2017-Sep-19 20:26N 46°12' W 123°47'0 0.0
2017-Sep-19 19:50N 46°12' W 123°47'0 0.0
2017-Sep-19 19:29N 46°12' W 123°47'0 0.0
2017-Sep-19 18:59N 46°12' W 123°47'0 0.1
2017-Sep-19 18:29N 46°12' W 123°47'0 0.0
2017-Sep-19 17:59N 46°12' W 123°47'0 0.0
2017-Sep-19 17:29N 46°12' W 123°47'0 0.0
2017-Sep-19 16:59N 46°12' W 123°47'0 0.1
2017-Sep-19 16:29N 46°12' W 123°47'0 0.3
2017-Sep-19 15:59N 46°12' W 123°47'0 0.3
2017-Sep-19 15:29N 46°12' W 123°47'0 0.0
2017-Sep-19 14:59N 46°12' W 123°47'0 0.0
2017-Sep-19 14:29N 46°12' W 123°47'0 0.1
2017-Sep-19 13:59N 46°12' W 123°47'0 0.0
2017-Sep-19 13:26N 46°12' W 123°47'  

Dump ship's entire track history